Aviation Digital Data Service (ADDS)

Output produced by METARs form (2004 UTC 18 January 2017)
found at http://aviationweather.gov/adds/metars/
 
KORH 181804Z 1818/1918 04007KT 2SM BR OVC002 
     FM182000 03007KT 1SM -FZDZRA BR OVC003 
     FM182200 03006KT 1/2SM -DZ FG VCSH OVC003 
     FM190000 03005KT 1/2SM FG VCSH OVC008 
     FM190500 VRB03KT P6SM OVC003 
     FM190700 31004KT 1/2SM FZFG OVC003 
     FM191100 27005KT 3/4SM BR OVC015 
     FM191500 29005KT P6SM SCT110